sensor_id;sensor_type;location;lat;lon;timestamp;P1;durP1;ratioP1;P2;durP2;ratioP2
56736;SDS011;42618;51.226;4.910;2023-06-26T00:00:50;6.93;;;5.00;;
56736;SDS011;42618;51.226;4.910;2023-06-26T00:03:17;5.63;;;4.77;;
56736;SDS011;42618;51.226;4.910;2023-06-26T00:05:44;6.03;;;4.67;;
56736;SDS011;42618;51.226;4.910;2023-06-26T00:08:11;7.97;;;4.80;;
56736;SDS011;42618;51.226;4.910;2023-06-26T00:10:38;9.33;;;5.60;;
56736;SDS011;42618;51.226;4.910;2023-06-26T00:13:05;10.73;;;5.22;;
56736;SDS011;42618;51.226;4.910;2023-06-26T00:15:32;5.40;;;4.72;;
56736;SDS011;42618;51.226;4.910;2023-06-26T00:17:59;6.28;;;4.55;;
56736;SDS011;42618;51.226;4.910;2023-06-26T00:20:25;7.43;;;5.07;;
56736;SDS011;42618;51.226;4.910;2023-06-26T00:22:52;7.13;;;4.40;;
56736;SDS011;42618;51.226;4.910;2023-06-26T00:25:20;5.68;;;4.30;;
56736;SDS011;42618;51.226;4.910;2023-06-26T00:27:46;14.65;;;4.78;;
56736;SDS011;42618;51.226;4.910;2023-06-26T00:30:13;6.03;;;4.10;;
56736;SDS011;42618;51.226;4.910;2023-06-26T00:32:40;9.53;;;3.57;;
56736;SDS011;42618;51.226;4.910;2023-06-26T00:35:07;6.53;;;4.00;;
56736;SDS011;42618;51.226;4.910;2023-06-26T00:37:35;4.53;;;3.80;;
56736;SDS011;42618;51.226;4.910;2023-06-26T00:40:02;12.02;;;3.97;;
56736;SDS011;42618;51.226;4.910;2023-06-26T00:42:32;5.32;;;3.55;;
56736;SDS011;42618;51.226;4.910;2023-06-26T00:44:59;5.55;;;2.90;;
56736;SDS011;42618;51.226;4.910;2023-06-26T00:47:25;6.50;;;3.20;;
56736;SDS011;42618;51.226;4.910;2023-06-26T00:54:50;7.63;;;3.40;;
56736;SDS011;42618;51.226;4.910;2023-06-26T00:57:18;4.97;;;3.17;;
56736;SDS011;42618;51.226;4.910;2023-06-26T00:59:45;4.80;;;2.38;;
56736;SDS011;42618;51.226;4.910;2023-06-26T01:02:12;5.30;;;2.90;;
56736;SDS011;42618;51.226;4.910;2023-06-26T01:04:49;6.28;;;2.72;;
56736;SDS011;42618;51.226;4.910;2023-06-26T01:07:21;4.60;;;2.83;;
56736;SDS011;42618;51.226;4.910;2023-06-26T01:09:50;4.65;;;2.58;;
56736;SDS011;42618;51.226;4.910;2023-06-26T01:12:17;5.43;;;2.58;;
56736;SDS011;42618;51.226;4.910;2023-06-26T01:14:43;6.83;;;2.60;;
56736;SDS011;42618;51.226;4.910;2023-06-26T01:17:11;3.13;;;2.47;;
56736;SDS011;42618;51.226;4.910;2023-06-26T01:19:43;6.03;;;2.65;;
56736;SDS011;42618;51.226;4.910;2023-06-26T01:25:03;3.72;;;2.72;;
56736;SDS011;42618;51.226;4.910;2023-06-26T01:27:50;6.35;;;3.15;;
56736;SDS011;42618;51.226;4.910;2023-06-26T01:30:20;3.58;;;2.40;;
56736;SDS011;42618;51.226;4.910;2023-06-26T01:32:48;6.40;;;2.70;;
56736;SDS011;42618;51.226;4.910;2023-06-26T01:35:16;5.85;;;2.65;;
56736;SDS011;42618;51.226;4.910;2023-06-26T01:37:43;7.75;;;2.65;;
56736;SDS011;42618;51.226;4.910;2023-06-26T01:40:10;6.60;;;2.53;;
56736;SDS011;42618;51.226;4.910;2023-06-26T01:45:15;2.58;;;2.38;;
56736;SDS011;42618;51.226;4.910;2023-06-26T01:47:50;5.35;;;2.50;;
56736;SDS011;42618;51.226;4.910;2023-06-26T01:50:22;4.85;;;2.40;;
56736;SDS011;42618;51.226;4.910;2023-06-26T01:55:53;5.47;;;2.53;;
56736;SDS011;42618;51.226;4.910;2023-06-26T01:58:25;5.65;;;2.80;;
56736;SDS011;42618;51.226;4.910;2023-06-26T02:00:53;4.40;;;2.28;;
56736;SDS011;42618;51.226;4.910;2023-06-26T02:03:20;5.68;;;2.70;;
56736;SDS011;42618;51.226;4.910;2023-06-26T02:05:51;5.80;;;2.70;;
56736;SDS011;42618;51.226;4.910;2023-06-26T02:08:18;5.72;;;2.70;;
56736;SDS011;42618;51.226;4.910;2023-06-26T02:10:48;6.53;;;2.97;;
56736;SDS011;42618;51.226;4.910;2023-06-26T02:13:18;6.55;;;2.90;;
56736;SDS011;42618;51.226;4.910;2023-06-26T02:15:45;7.72;;;2.70;;
56736;SDS011;42618;51.226;4.910;2023-06-26T02:18:13;7.95;;;2.88;;
56736;SDS011;42618;51.226;4.910;2023-06-26T02:20:40;8.80;;;3.08;;
56736;SDS011;42618;51.226;4.910;2023-06-26T02:23:07;4.27;;;2.60;;
56736;SDS011;42618;51.226;4.910;2023-06-26T02:25:34;4.88;;;2.90;;
56736;SDS011;42618;51.226;4.910;2023-06-26T02:28:01;4.50;;;2.60;;
56736;SDS011;42618;51.226;4.910;2023-06-26T02:30:28;5.90;;;2.90;;
56736;SDS011;42618;51.226;4.910;2023-06-26T02:32:58;5.68;;;2.67;;
56736;SDS011;42618;51.226;4.910;2023-06-26T02:35:28;5.30;;;2.67;;
56736;SDS011;42618;51.226;4.910;2023-06-26T02:37:55;7.40;;;2.72;;
56736;SDS011;42618;51.226;4.910;2023-06-26T02:40:22;3.95;;;2.72;;
56736;SDS011;42618;51.226;4.910;2023-06-26T02:42:50;7.10;;;2.63;;
56736;SDS011;42618;51.226;4.910;2023-06-26T02:45:18;5.47;;;3.10;;
56736;SDS011;42618;51.226;4.910;2023-06-26T02:47:44;5.60;;;2.65;;
56736;SDS011;42618;51.226;4.910;2023-06-26T02:50:12;5.65;;;2.53;;
56736;SDS011;42618;51.226;4.910;2023-06-26T02:52:59;5.25;;;2.75;;
56736;SDS011;42618;51.226;4.910;2023-06-26T02:55:28;5.15;;;2.92;;
56736;SDS011;42618;51.226;4.910;2023-06-26T02:57:56;11.52;;;2.65;;
56736;SDS011;42618;51.226;4.910;2023-06-26T03:00:23;6.50;;;2.80;;
56736;SDS011;42618;51.226;4.910;2023-06-26T03:02:52;3.80;;;2.63;;
56736;SDS011;42618;51.226;4.910;2023-06-26T03:05:19;5.35;;;2.75;;
56736;SDS011;42618;51.226;4.910;2023-06-26T03:10:14;6.50;;;3.00;;
56736;SDS011;42618;51.226;4.910;2023-06-26T03:12:42;11.10;;;3.10;;
56736;SDS011;42618;51.226;4.910;2023-06-26T03:15:10;6.47;;;3.00;;
56736;SDS011;42618;51.226;4.910;2023-06-26T03:17:38;8.20;;;3.47;;
56736;SDS011;42618;51.226;4.910;2023-06-26T03:20:09;10.68;;;3.50;;
56736;SDS011;42618;51.226;4.910;2023-06-26T03:22:46;7.00;;;2.50;;
56736;SDS011;42618;51.226;4.910;2023-06-26T03:25:15;11.32;;;3.15;;
56736;SDS011;42618;51.226;4.910;2023-06-26T03:27:42;9.85;;;3.28;;
56736;SDS011;42618;51.226;4.910;2023-06-26T03:30:09;9.90;;;3.53;;
56736;SDS011;42618;51.226;4.910;2023-06-26T03:32:39;8.10;;;3.50;;
56736;SDS011;42618;51.226;4.910;2023-06-26T03:35:11;7.15;;;3.42;;
56736;SDS011;42618;51.226;4.910;2023-06-26T03:37:38;11.53;;;3.83;;
56736;SDS011;42618;51.226;4.910;2023-06-26T03:40:07;7.45;;;3.50;;
56736;SDS011;42618;51.226;4.910;2023-06-26T03:42:41;7.07;;;3.33;;
56736;SDS011;42618;51.226;4.910;2023-06-26T03:45:09;10.30;;;3.83;;
56736;SDS011;42618;51.226;4.910;2023-06-26T03:47:36;12.30;;;3.55;;
56736;SDS011;42618;51.226;4.910;2023-06-26T03:50:04;15.57;;;3.95;;
56736;SDS011;42618;51.226;4.910;2023-06-26T03:52:31;8.25;;;3.35;;
56736;SDS011;42618;51.226;4.910;2023-06-26T03:54:58;10.80;;;3.60;;
56736;SDS011;42618;51.226;4.910;2023-06-26T03:57:25;13.75;;;4.18;;
56736;SDS011;42618;51.226;4.910;2023-06-26T03:59:52;10.15;;;3.70;;
56736;SDS011;42618;51.226;4.910;2023-06-26T04:02:21;10.35;;;3.47;;
56736;SDS011;42618;51.226;4.910;2023-06-26T04:04:50;11.60;;;3.08;;
56736;SDS011;42618;51.226;4.910;2023-06-26T04:07:19;8.57;;;3.08;;
56736;SDS011;42618;51.226;4.910;2023-06-26T04:09:46;10.90;;;2.80;;
56736;SDS011;42618;51.226;4.910;2023-06-26T04:12:13;12.05;;;3.22;;
56736;SDS011;42618;51.226;4.910;2023-06-26T04:14:40;15.95;;;3.28;;
56736;SDS011;42618;51.226;4.910;2023-06-26T04:17:07;10.80;;;3.40;;
56736;SDS011;42618;51.226;4.910;2023-06-26T04:19:33;12.70;;;3.20;;
56736;SDS011;42618;51.226;4.910;2023-06-26T04:22:02;8.98;;;3.10;;
56736;SDS011;42618;51.226;4.910;2023-06-26T04:24:30;9.32;;;2.90;;
56736;SDS011;42618;51.226;4.910;2023-06-26T04:26:56;8.80;;;2.80;;
56736;SDS011;42618;51.226;4.910;2023-06-26T04:29:23;13.25;;;3.17;;
56736;SDS011;42618;51.226;4.910;2023-06-26T04:31:53;9.98;;;2.60;;
56736;SDS011;42618;51.226;4.910;2023-06-26T04:34:25;9.88;;;2.85;;
56736;SDS011;42618;51.226;4.910;2023-06-26T04:36:53;10.05;;;2.70;;
56736;SDS011;42618;51.226;4.910;2023-06-26T04:41:48;11.98;;;3.13;;
56736;SDS011;42618;51.226;4.910;2023-06-26T04:44:15;11.07;;;2.72;;
56736;SDS011;42618;51.226;4.910;2023-06-26T04:46:42;25.65;;;3.33;;
56736;SDS011;42618;51.226;4.910;2023-06-26T04:49:09;9.60;;;2.53;;
56736;SDS011;42618;51.226;4.910;2023-06-26T04:51:35;11.45;;;4.07;;
56736;SDS011;42618;51.226;4.910;2023-06-26T04:54:10;11.15;;;3.75;;
56736;SDS011;42618;51.226;4.910;2023-06-26T04:56:37;10.82;;;2.95;;
56736;SDS011;42618;51.226;4.910;2023-06-26T04:59:06;10.85;;;2.58;;
56736;SDS011;42618;51.226;4.910;2023-06-26T05:01:33;8.88;;;2.58;;
56736;SDS011;42618;51.226;4.910;2023-06-26T05:04:01;11.63;;;2.85;;
56736;SDS011;42618;51.226;4.910;2023-06-26T05:08:55;10.27;;;2.27;;
56736;SDS011;42618;51.226;4.910;2023-06-26T05:11:22;13.80;;;2.60;;
56736;SDS011;42618;51.226;4.910;2023-06-26T05:13:51;9.13;;;1.92;;
56736;SDS011;42618;51.226;4.910;2023-06-26T05:16:18;11.60;;;2.70;;
56736;SDS011;42618;51.226;4.910;2023-06-26T05:18:45;11.75;;;2.42;;
56736;SDS011;42618;51.226;4.910;2023-06-26T05:21:12;11.85;;;2.42;;
56736;SDS011;42618;51.226;4.910;2023-06-26T05:23:39;11.80;;;3.10;;
56736;SDS011;42618;51.226;4.910;2023-06-26T05:26:06;23.13;;;8.00;;
56736;SDS011;42618;51.226;4.910;2023-06-26T05:28:33;7.20;;;2.20;;
56736;SDS011;42618;51.226;4.910;2023-06-26T05:31:02;17.88;;;2.30;;
56736;SDS011;42618;51.226;4.910;2023-06-26T05:33:31;13.57;;;2.35;;
56736;SDS011;42618;51.226;4.910;2023-06-26T05:36:02;10.63;;;2.25;;
56736;SDS011;42618;51.226;4.910;2023-06-26T05:38:30;7.80;;;2.47;;
56736;SDS011;42618;51.226;4.910;2023-06-26T05:40:57;8.25;;;2.20;;
56736;SDS011;42618;51.226;4.910;2023-06-26T05:43:24;9.60;;;2.10;;
56736;SDS011;42618;51.226;4.910;2023-06-26T05:45:54;10.35;;;1.95;;
56736;SDS011;42618;51.226;4.910;2023-06-26T05:48:21;11.60;;;2.72;;
56736;SDS011;42618;51.226;4.910;2023-06-26T05:50:48;13.77;;;2.20;;
56736;SDS011;42618;51.226;4.910;2023-06-26T05:53:15;10.05;;;2.00;;
56736;SDS011;42618;51.226;4.910;2023-06-26T05:55:42;9.93;;;1.52;;
56736;SDS011;42618;51.226;4.910;2023-06-26T05:58:10;13.50;;;2.20;;
56736;SDS011;42618;51.226;4.910;2023-06-26T06:00:41;10.38;;;1.77;;
56736;SDS011;42618;51.226;4.910;2023-06-26T06:03:09;7.22;;;1.58;;
56736;SDS011;42618;51.226;4.910;2023-06-26T06:05:37;9.45;;;1.63;;
56736;SDS011;42618;51.226;4.910;2023-06-26T06:08:04;10.73;;;1.73;;
56736;SDS011;42618;51.226;4.910;2023-06-26T06:10:30;9.68;;;2.15;;
56736;SDS011;42618;51.226;4.910;2023-06-26T06:12:57;9.50;;;2.00;;
56736;SDS011;42618;51.226;4.910;2023-06-26T06:15:24;10.63;;;1.90;;
56736;SDS011;42618;51.226;4.910;2023-06-26T06:20:19;8.20;;;1.50;;
56736;SDS011;42618;51.226;4.910;2023-06-26T06:22:48;8.63;;;1.30;;
56736;SDS011;42618;51.226;4.910;2023-06-26T06:25:15;11.38;;;1.30;;
56736;SDS011;42618;51.226;4.910;2023-06-26T06:27:42;8.80;;;1.30;;
56736;SDS011;42618;51.226;4.910;2023-06-26T06:30:10;5.80;;;1.50;;
56736;SDS011;42618;51.226;4.910;2023-06-26T06:32:37;8.05;;;1.10;;
56736;SDS011;42618;51.226;4.910;2023-06-26T06:35:04;6.40;;;1.30;;
56736;SDS011;42618;51.226;4.910;2023-06-26T06:37:39;6.30;;;1.20;;
56736;SDS011;42618;51.226;4.910;2023-06-26T06:40:06;5.78;;;1.00;;
56736;SDS011;42618;51.226;4.910;2023-06-26T06:42:33;6.15;;;1.00;;
56736;SDS011;42618;51.226;4.910;2023-06-26T06:45:01;8.70;;;1.73;;
56736;SDS011;42618;51.226;4.910;2023-06-26T06:47:28;5.40;;;1.20;;
56736;SDS011;42618;51.226;4.910;2023-06-26T06:49:56;9.90;;;0.93;;
56736;SDS011;42618;51.226;4.910;2023-06-26T06:52:22;8.83;;;1.00;;
56736;SDS011;42618;51.226;4.910;2023-06-26T06:54:52;7.22;;;1.00;;
56736;SDS011;42618;51.226;4.910;2023-06-26T06:57:25;8.20;;;1.10;;
56736;SDS011;42618;51.226;4.910;2023-06-26T06:59:51;10.25;;;1.17;;
56736;SDS011;42618;51.226;4.910;2023-06-26T07:02:18;8.27;;;0.82;;
56736;SDS011;42618;51.226;4.910;2023-06-26T07:04:46;7.72;;;1.33;;
56736;SDS011;42618;51.226;4.910;2023-06-26T07:07:12;4.43;;;0.80;;
56736;SDS011;42618;51.226;4.910;2023-06-26T07:09:43;5.85;;;0.95;;
56736;SDS011;42618;51.226;4.910;2023-06-26T07:12:10;5.07;;;0.77;;
56736;SDS011;42618;51.226;4.910;2023-06-26T07:14:37;7.10;;;0.90;;
56736;SDS011;42618;51.226;4.910;2023-06-26T07:17:05;7.85;;;0.80;;
56736;SDS011;42618;51.226;4.910;2023-06-26T07:19:32;4.13;;;1.53;;
56736;SDS011;42618;51.226;4.910;2023-06-26T07:21:59;3.40;;;0.68;;
56736;SDS011;42618;51.226;4.910;2023-06-26T07:24:25;5.10;;;0.63;;
56736;SDS011;42618;51.226;4.910;2023-06-26T07:26:52;4.63;;;0.70;;
56736;SDS011;42618;51.226;4.910;2023-06-26T07:29:19;5.07;;;0.82;;
56736;SDS011;42618;51.226;4.910;2023-06-26T07:31:46;3.67;;;0.73;;
56736;SDS011;42618;51.226;4.910;2023-06-26T07:34:14;6.80;;;0.77;;
56736;SDS011;42618;51.226;4.910;2023-06-26T07:36:41;3.90;;;0.85;;
56736;SDS011;42618;51.226;4.910;2023-06-26T07:39:08;4.90;;;0.60;;
56736;SDS011;42618;51.226;4.910;2023-06-26T07:41:39;6.25;;;0.90;;
56736;SDS011;42618;51.226;4.910;2023-06-26T07:44:05;7.28;;;0.95;;
56736;SDS011;42618;51.226;4.910;2023-06-26T07:46:32;3.50;;;0.73;;
56736;SDS011;42618;51.226;4.910;2023-06-26T07:48:59;6.22;;;1.10;;
56736;SDS011;42618;51.226;4.910;2023-06-26T07:51:26;5.05;;;0.95;;
56736;SDS011;42618;51.226;4.910;2023-06-26T07:53:52;8.02;;;1.15;;
56736;SDS011;42618;51.226;4.910;2023-06-26T07:56:19;4.95;;;0.80;;
56736;SDS011;42618;51.226;4.910;2023-06-26T07:58:46;6.25;;;0.60;;
56736;SDS011;42618;51.226;4.910;2023-06-26T08:01:13;6.13;;;0.90;;
56736;SDS011;42618;51.226;4.910;2023-06-26T08:03:40;4.00;;;0.60;;
56736;SDS011;42618;51.226;4.910;2023-06-26T08:06:07;9.38;;;0.80;;
56736;SDS011;42618;51.226;4.910;2023-06-26T08:08:37;2.75;;;0.50;;
56736;SDS011;42618;51.226;4.910;2023-06-26T08:11:03;3.95;;;0.70;;
56736;SDS011;42618;51.226;4.910;2023-06-26T08:13:30;5.95;;;1.05;;
56736;SDS011;42618;51.226;4.910;2023-06-26T08:15:57;9.05;;;2.72;;
56736;SDS011;42618;51.226;4.910;2023-06-26T08:18:23;11.23;;;1.83;;
56736;SDS011;42618;51.226;4.910;2023-06-26T08:20:50;4.15;;;0.60;;
56736;SDS011;42618;51.226;4.910;2023-06-26T08:23:17;4.25;;;0.60;;
56736;SDS011;42618;51.226;4.910;2023-06-26T08:25:44;4.90;;;0.50;;
56736;SDS011;42618;51.226;4.910;2023-06-26T08:28:11;2.90;;;0.40;;
56736;SDS011;42618;51.226;4.910;2023-06-26T08:30:37;5.68;;;0.50;;
56736;SDS011;42618;51.226;4.910;2023-06-26T08:33:05;1.63;;;0.30;;
56736;SDS011;42618;51.226;4.910;2023-06-26T08:35:31;2.27;;;0.57;;
56736;SDS011;42618;51.226;4.910;2023-06-26T08:38:01;1.80;;;0.50;;
56736;SDS011;42618;51.226;4.910;2023-06-26T08:40:28;3.53;;;0.73;;
56736;SDS011;42618;51.226;4.910;2023-06-26T08:42:55;3.13;;;1.02;;
56736;SDS011;42618;51.226;4.910;2023-06-26T08:45:24;5.53;;;0.52;;
56736;SDS011;42618;51.226;4.910;2023-06-26T08:47:51;5.22;;;0.50;;
56736;SDS011;42618;51.226;4.910;2023-06-26T08:50:22;6.97;;;0.47;;
56736;SDS011;42618;51.226;4.910;2023-06-26T08:52:56;2.53;;;1.05;;
56736;SDS011;42618;51.226;4.910;2023-06-26T08:55:30;5.60;;;0.50;;
56736;SDS011;42618;51.226;4.910;2023-06-26T08:57:59;8.05;;;0.80;;
56736;SDS011;42618;51.226;4.910;2023-06-26T09:00:28;2.72;;;0.50;;
56736;SDS011;42618;51.226;4.910;2023-06-26T09:02:55;2.43;;;0.70;;
56736;SDS011;42618;51.226;4.910;2023-06-26T09:05:22;6.25;;;0.60;;
56736;SDS011;42618;51.226;4.910;2023-06-26T09:07:49;2.17;;;0.52;;
56736;SDS011;42618;51.226;4.910;2023-06-26T09:10:16;5.30;;;2.27;;
56736;SDS011;42618;51.226;4.910;2023-06-26T09:12:45;2.30;;;0.50;;
56736;SDS011;42618;51.226;4.910;2023-06-26T09:15:19;6.43;;;0.47;;
56736;SDS011;42618;51.226;4.910;2023-06-26T09:17:47;5.50;;;0.70;;
56736;SDS011;42618;51.226;4.910;2023-06-26T09:20:15;3.75;;;0.50;;
56736;SDS011;42618;51.226;4.910;2023-06-26T09:22:42;3.33;;;0.70;;
56736;SDS011;42618;51.226;4.910;2023-06-26T09:25:13;8.60;;;0.80;;
56736;SDS011;42618;51.226;4.910;2023-06-26T09:27:40;4.47;;;0.65;;
56736;SDS011;42618;51.226;4.910;2023-06-26T09:30:09;5.78;;;0.80;;
56736;SDS011;42618;51.226;4.910;2023-06-26T09:32:38;1.92;;;0.40;;
56736;SDS011;42618;51.226;4.910;2023-06-26T09:35:04;3.80;;;0.60;;
56736;SDS011;42618;51.226;4.910;2023-06-26T09:37:32;4.15;;;0.60;;
56736;SDS011;42618;51.226;4.910;2023-06-26T09:40:00;3.30;;;0.40;;
56736;SDS011;42618;51.226;4.910;2023-06-26T09:42:27;7.13;;;0.70;;
56736;SDS011;42618;51.226;4.910;2023-06-26T09:44:54;5.43;;;0.50;;
56736;SDS011;42618;51.226;4.910;2023-06-26T09:47:21;1.98;;;0.50;;
56736;SDS011;42618;51.226;4.910;2023-06-26T09:49:51;4.45;;;0.50;;
56736;SDS011;42618;51.226;4.910;2023-06-26T09:52:19;3.70;;;0.50;;
56736;SDS011;42618;51.226;4.910;2023-06-26T09:54:46;3.67;;;0.40;;
56736;SDS011;42618;51.226;4.910;2023-06-26T09:57:14;5.50;;;0.50;;
56736;SDS011;42618;51.226;4.910;2023-06-26T09:59:42;7.22;;;0.63;;
56736;SDS011;42618;51.226;4.910;2023-06-26T10:02:14;4.45;;;2.17;;
56736;SDS011;42618;51.226;4.910;2023-06-26T10:04:41;6.93;;;1.90;;
56736;SDS011;42618;51.226;4.910;2023-06-26T10:07:10;5.72;;;0.60;;
56736;SDS011;42618;51.226;4.910;2023-06-26T10:09:40;4.32;;;0.50;;
56736;SDS011;42618;51.226;4.910;2023-06-26T10:12:13;4.32;;;0.63;;
56736;SDS011;42618;51.226;4.910;2023-06-26T10:14:44;2.72;;;0.55;;
56736;SDS011;42618;51.226;4.910;2023-06-26T10:17:15;6.78;;;0.50;;
56736;SDS011;42618;51.226;4.910;2023-06-26T10:19:45;1.95;;;0.50;;
56736;SDS011;42618;51.226;4.910;2023-06-26T10:22:17;2.55;;;0.45;;
56736;SDS011;42618;51.226;4.910;2023-06-26T10:24:47;10.85;;;0.82;;
56736;SDS011;42618;51.226;4.910;2023-06-26T10:27:19;2.55;;;0.80;;
56736;SDS011;42618;51.226;4.910;2023-06-26T10:29:48;4.75;;;0.60;;
56736;SDS011;42618;51.226;4.910;2023-06-26T10:32:21;3.45;;;1.48;;
56736;SDS011;42618;51.226;4.910;2023-06-26T10:34:51;6.53;;;2.17;;
56736;SDS011;42618;51.226;4.910;2023-06-26T10:37:19;3.10;;;0.60;;
56736;SDS011;42618;51.226;4.910;2023-06-26T10:39:49;7.35;;;0.80;;
56736;SDS011;42618;51.226;4.910;2023-06-26T10:42:17;4.70;;;1.00;;
56736;SDS011;42618;51.226;4.910;2023-06-26T10:44:46;3.45;;;0.50;;
56736;SDS011;42618;51.226;4.910;2023-06-26T10:47:31;1.70;;;0.38;;
56736;SDS011;42618;51.226;4.910;2023-06-26T10:50:18;2.80;;;0.65;;
56736;SDS011;42618;51.226;4.910;2023-06-26T10:53:07;3.75;;;0.75;;
56736;SDS011;42618;51.226;4.910;2023-06-26T10:55:34;2.00;;;0.60;;
56736;SDS011;42618;51.226;4.910;2023-06-26T10:58:01;6.22;;;0.68;;
56736;SDS011;42618;51.226;4.910;2023-06-26T11:00:31;5.63;;;0.50;;
56736;SDS011;42618;51.226;4.910;2023-06-26T11:02:58;7.30;;;0.80;;
56736;SDS011;42618;51.226;4.910;2023-06-26T11:05:28;4.85;;;0.85;;
56736;SDS011;42618;51.226;4.910;2023-06-26T11:08:02;5.60;;;0.70;;
56736;SDS011;42618;51.226;4.910;2023-06-26T11:10:53;7.50;;;0.60;;
56736;SDS011;42618;51.226;4.910;2023-06-26T11:13:22;10.05;;;0.77;;
56736;SDS011;42618;51.226;4.910;2023-06-26T11:15:49;2.13;;;0.60;;
56736;SDS011;42618;51.226;4.910;2023-06-26T11:18:17;4.22;;;0.65;;
56736;SDS011;42618;51.226;4.910;2023-06-26T11:20:43;3.53;;;0.60;;
56736;SDS011;42618;51.226;4.910;2023-06-26T11:23:10;1.20;;;0.43;;
56736;SDS011;42618;51.226;4.910;2023-06-26T11:25:38;1.63;;;0.65;;
56736;SDS011;42618;51.226;4.910;2023-06-26T11:28:05;5.10;;;0.60;;
56736;SDS011;42618;51.226;4.910;2023-06-26T11:30:32;4.82;;;0.70;;
56736;SDS011;42618;51.226;4.910;2023-06-26T11:33:09;3.55;;;0.80;;
56736;SDS011;42618;51.226;4.910;2023-06-26T11:35:36;4.72;;;0.50;;
56736;SDS011;42618;51.226;4.910;2023-06-26T11:38:05;3.83;;;0.70;;
56736;SDS011;42618;51.226;4.910;2023-06-26T11:40:33;2.38;;;0.60;;
56736;SDS011;42618;51.226;4.910;2023-06-26T11:43:01;2.45;;;0.60;;
56736;SDS011;42618;51.226;4.910;2023-06-26T11:45:33;3.33;;;0.50;;
56736;SDS011;42618;51.226;4.910;2023-06-26T11:48:00;8.48;;;0.68;;
56736;SDS011;42618;51.226;4.910;2023-06-26T11:50:30;3.38;;;0.70;;
56736;SDS011;42618;51.226;4.910;2023-06-26T11:52:58;7.45;;;0.90;;
56736;SDS011;42618;51.226;4.910;2023-06-26T11:55:25;6.38;;;0.60;;
56736;SDS011;42618;51.226;4.910;2023-06-26T11:57:53;1.83;;;0.50;;
56736;SDS011;42618;51.226;4.910;2023-06-26T12:00:22;6.32;;;0.63;;
56736;SDS011;42618;51.226;4.910;2023-06-26T12:02:51;3.38;;;0.50;;
56736;SDS011;42618;51.226;4.910;2023-06-26T12:05:19;5.78;;;0.80;;
56736;SDS011;42618;51.226;4.910;2023-06-26T12:07:47;1.70;;;0.50;;
56736;SDS011;42618;51.226;4.910;2023-06-26T12:10:15;2.33;;;0.70;;
56736;SDS011;42618;51.226;4.910;2023-06-26T12:12:43;2.40;;;0.57;;
56736;SDS011;42618;51.226;4.910;2023-06-26T12:15:13;1.42;;;0.50;;
56736;SDS011;42618;51.226;4.910;2023-06-26T12:17:42;5.07;;;0.60;;
56736;SDS011;42618;51.226;4.910;2023-06-26T12:20:19;6.30;;;0.50;;
56736;SDS011;42618;51.226;4.910;2023-06-26T12:22:49;4.03;;;0.68;;
56736;SDS011;42618;51.226;4.910;2023-06-26T12:25:25;4.93;;;0.53;;
56736;SDS011;42618;51.226;4.910;2023-06-26T12:27:52;6.00;;;0.63;;
56736;SDS011;42618;51.226;4.910;2023-06-26T12:30:18;0.90;;;0.35;;
56736;SDS011;42618;51.226;4.910;2023-06-26T12:32:45;1.17;;;0.50;;
56736;SDS011;42618;51.226;4.910;2023-06-26T12:35:16;3.78;;;0.50;;
56736;SDS011;42618;51.226;4.910;2023-06-26T12:37:43;2.47;;;0.40;;
56736;SDS011;42618;51.226;4.910;2023-06-26T12:40:16;6.20;;;0.63;;
56736;SDS011;42618;51.226;4.910;2023-06-26T12:42:49;2.63;;;0.40;;
56736;SDS011;42618;51.226;4.910;2023-06-26T12:45:15;2.40;;;0.40;;
56736;SDS011;42618;51.226;4.910;2023-06-26T12:48:58;3.05;;;0.50;;
56736;SDS011;42618;51.226;4.910;2023-06-26T12:51:14;2.40;;;0.60;;
56736;SDS011;42618;51.226;4.910;2023-06-26T12:53:44;1.52;;;0.50;;
56736;SDS011;42618;51.226;4.910;2023-06-26T12:56:11;5.65;;;0.50;;
56736;SDS011;42618;51.226;4.910;2023-06-26T12:58:38;3.93;;;0.73;;
56736;SDS011;42618;51.226;4.910;2023-06-26T13:01:06;2.42;;;0.50;;
56736;SDS011;42618;51.226;4.910;2023-06-26T13:03:41;2.03;;;0.63;;
56736;SDS011;42618;51.226;4.910;2023-06-26T13:06:08;5.47;;;0.60;;
56736;SDS011;42618;51.226;4.910;2023-06-26T13:08:35;1.07;;;0.50;;
56736;SDS011;42618;51.226;4.910;2023-06-26T13:11:02;11.00;;;5.37;;
56736;SDS011;42618;51.226;4.910;2023-06-26T13:13:28;1.38;;;0.40;;
56736;SDS011;42618;51.226;4.910;2023-06-26T13:15:55;8.07;;;0.70;;
56736;SDS011;42618;51.226;4.910;2023-06-26T13:18:22;5.97;;;0.70;;
56736;SDS011;42618;51.226;4.910;2023-06-26T13:20:49;3.70;;;0.60;;
56736;SDS011;42618;51.226;4.910;2023-06-26T13:23:16;2.20;;;0.60;;
56736;SDS011;42618;51.226;4.910;2023-06-26T13:25:43;3.67;;;0.52;;
56736;SDS011;42618;51.226;4.910;2023-06-26T13:28:09;5.88;;;0.70;;
56736;SDS011;42618;51.226;4.910;2023-06-26T13:30:36;4.40;;;0.67;;
56736;SDS011;42618;51.226;4.910;2023-06-26T13:33:03;6.63;;;0.75;;
56736;SDS011;42618;51.226;4.910;2023-06-26T13:35:30;4.55;;;0.60;;
56736;SDS011;42618;51.226;4.910;2023-06-26T13:37:57;3.60;;;0.60;;
56736;SDS011;42618;51.226;4.910;2023-06-26T13:40:24;1.93;;;0.67;;
56736;SDS011;42618;51.226;4.910;2023-06-26T13:42:50;5.30;;;0.60;;
56736;SDS011;42618;51.226;4.910;2023-06-26T13:45:18;2.88;;;0.50;;
56736;SDS011;42618;51.226;4.910;2023-06-26T13:47:51;6.18;;;0.50;;
56736;SDS011;42618;51.226;4.910;2023-06-26T13:50:18;4.47;;;0.57;;
56736;SDS011;42618;51.226;4.910;2023-06-26T13:52:45;3.33;;;0.60;;
56736;SDS011;42618;51.226;4.910;2023-06-26T13:55:12;4.35;;;0.70;;
56736;SDS011;42618;51.226;4.910;2023-06-26T13:57:38;3.00;;;0.80;;
56736;SDS011;42618;51.226;4.910;2023-06-26T14:00:08;4.35;;;0.63;;
56736;SDS011;42618;51.226;4.910;2023-06-26T14:02:37;2.33;;;0.50;;
56736;SDS011;42618;51.226;4.910;2023-06-26T14:05:04;4.10;;;0.65;;
56736;SDS011;42618;51.226;4.910;2023-06-26T14:07:31;2.80;;;0.50;;
56736;SDS011;42618;51.226;4.910;2023-06-26T14:09:58;1.23;;;0.52;;
56736;SDS011;42618;51.226;4.910;2023-06-26T14:12:25;3.17;;;0.75;;
56736;SDS011;42618;51.226;4.910;2023-06-26T14:14:52;5.03;;;0.50;;
56736;SDS011;42618;51.226;4.910;2023-06-26T14:17:19;4.47;;;0.68;;
56736;SDS011;42618;51.226;4.910;2023-06-26T14:19:46;3.22;;;0.50;;
56736;SDS011;42618;51.226;4.910;2023-06-26T14:22:12;3.35;;;0.60;;
56736;SDS011;42618;51.226;4.910;2023-06-26T14:24:39;1.77;;;0.50;;
56736;SDS011;42618;51.226;4.910;2023-06-26T14:27:06;6.40;;;1.93;;
56736;SDS011;42618;51.226;4.910;2023-06-26T14:29:33;4.32;;;1.50;;
56736;SDS011;42618;51.226;4.910;2023-06-26T14:31:59;9.47;;;1.37;;
56736;SDS011;42618;51.226;4.910;2023-06-26T14:34:26;3.60;;;0.50;;
56736;SDS011;42618;51.226;4.910;2023-06-26T14:36:53;1.60;;;0.60;;
56736;SDS011;42618;51.226;4.910;2023-06-26T14:39:20;4.33;;;0.47;;
56736;SDS011;42618;51.226;4.910;2023-06-26T14:41:47;3.03;;;0.90;;
56736;SDS011;42618;51.226;4.910;2023-06-26T14:44:15;4.32;;;0.60;;
56736;SDS011;42618;51.226;4.910;2023-06-26T14:46:42;0.60;;;0.40;;
56736;SDS011;42618;51.226;4.910;2023-06-26T14:49:09;1.63;;;0.35;;
56736;SDS011;42618;51.226;4.910;2023-06-26T14:51:36;1.27;;;0.40;;
56736;SDS011;42618;51.226;4.910;2023-06-26T14:54:04;2.40;;;0.40;;
56736;SDS011;42618;51.226;4.910;2023-06-26T14:56:32;4.80;;;0.50;;
56736;SDS011;42618;51.226;4.910;2023-06-26T14:58:59;0.77;;;0.55;;
56736;SDS011;42618;51.226;4.910;2023-06-26T15:01:25;2.93;;;0.57;;
56736;SDS011;42618;51.226;4.910;2023-06-26T15:03:52;1.83;;;0.52;;
56736;SDS011;42618;51.226;4.910;2023-06-26T15:06:19;3.45;;;0.90;;
56736;SDS011;42618;51.226;4.910;2023-06-26T15:08:46;4.13;;;1.00;;
56736;SDS011;42618;51.226;4.910;2023-06-26T15:11:13;6.88;;;0.60;;
56736;SDS011;42618;51.226;4.910;2023-06-26T15:13:40;3.78;;;0.65;;
56736;SDS011;42618;51.226;4.910;2023-06-26T15:16:07;7.17;;;0.60;;